Time;durP1;ratioP1;P1;durP2;ratioP2;P2;SDS_P1;SDS_P2;PMS_P1;PMS_P2;Temp;Humidity;BMP_temperature;BMP_pressure;BME280_temperature;BME280_humidity;BME280_pressure;Samples;Min_cycle;Max_cycle;Signal;HPM_P1;HPM_P2
2022/01/13 00:02:03;;;;;;;86.67;40.60;;;-4.40;99.90;;;;;;5017345;28;21247;-88
2022/01/13 00:04:29;;;;;;;91.45;41.35;;;-4.40;99.90;;;;;;5017687;28;20273;-87
2022/01/13 00:06:55;;;;;;;84.73;42.60;;;-4.40;99.90;;;;;;5017474;28;20265;-88
2022/01/13 00:09:21;;;;;;;86.77;44.13;;;-4.40;99.90;;;;;;5017119;28;20508;-88
2022/01/13 00:11:48;;;;;;;89.40;43.95;;;-4.40;99.90;;;;;;5033868;28;20541;-88
2022/01/13 00:17:07;;;;;;;88.43;40.85;;;-4.40;99.90;;;;;;5035136;28;20202;-88
2022/01/13 00:19:47;;;;;;;86.60;43.33;;;-4.40;99.90;;;;;;5034978;28;20178;-88
2022/01/13 00:24:40;;;;;;;80.47;39.50;;;-4.40;99.90;;;;;;5035321;28;20668;-88
2022/01/13 00:27:11;;;;;;;78.65;38.45;;;-4.30;99.90;;;;;;5021415;28;20182;-88
2022/01/13 00:29:40;;;;;;;87.15;40.65;;;-4.30;99.90;;;;;;5027093;28;20674;-88
2022/01/13 00:32:07;;;;;;;80.25;38.00;;;-4.30;99.90;;;;;;5016886;28;20174;-88
2022/01/13 00:34:33;;;;;;;89.72;39.78;;;-4.30;99.90;;;;;;5017627;28;20228;-88
2022/01/13 00:36:59;;;;;;;87.20;37.93;;;-4.30;99.90;;;;;;5034316;28;20470;-89
2022/01/13 00:39:25;;;;;;;74.70;39.23;;;-4.40;99.90;;;;;;5017035;28;20971;-89
2022/01/13 00:41:51;;;;;;;75.85;39.30;;;-4.40;99.90;;;;;;5034479;28;20217;-88
2022/01/13 00:44:21;;;;;;;81.00;39.80;;;-4.40;99.90;;;;;;5016268;28;20178;-89
2022/01/13 00:46:58;;;;;;;81.63;40.45;;;-4.40;99.90;;;;;;5018541;28;20644;-88
2022/01/13 00:49:25;;;;;;;81.32;38.13;;;-4.40;99.90;;;;;;5016823;28;20171;-88
2022/01/13 00:51:51;;;;;;;77.28;39.85;;;-4.30;99.90;;;;;;5034352;28;20178;-89
2022/01/13 00:54:17;;;;;;;73.55;37.55;;;-4.40;99.90;;;;;;5034270;28;20178;-89
2022/01/13 00:56:43;;;;;;;76.73;39.80;;;-4.40;99.90;;;;;;5034342;28;20674;-89
2022/01/13 00:59:11;;;;;;;85.00;39.70;;;-4.40;99.90;;;;;;5017416;28;20507;-89
2022/01/13 01:01:45;;;;;;;84.28;39.30;;;-4.40;99.90;;;;;;5016972;28;20456;-88
2022/01/13 01:04:12;;;;;;;91.10;40.40;;;-4.40;99.90;;;;;;5038342;28;20670;-88
2022/01/13 01:06:38;;;;;;;77.72;37.35;;;-4.40;99.90;;;;;;5020117;28;20256;-88
2022/01/13 01:09:05;;;;;;;77.85;37.95;;;-4.40;99.90;;;;;;5020811;28;20183;-88
2022/01/13 01:11:31;;;;;;;82.63;40.28;;;-4.40;99.90;;;;;;5020563;28;20197;-88
2022/01/13 01:13:58;;;;;;;77.27;36.87;;;-4.40;99.90;;;;;;5020428;28;20174;-87
2022/01/13 01:16:26;;;;;;;83.60;39.50;;;-4.40;99.90;;;;;;5020429;28;20455;-88
2022/01/13 01:19:00;;;;;;;79.45;40.20;;;-4.40;99.90;;;;;;5036985;28;20217;-89
2022/01/13 01:31:39;;;;;;;75.43;35.78;;;-4.40;99.90;;;;;;5039591;28;20719;-88
2022/01/13 01:36:34;;;;;;;65.80;35.00;;;-4.40;99.90;;;;;;5039553;28;20202;-88
2022/01/13 01:39:00;;;;;;;79.53;39.07;;;-4.40;99.90;;;;;;5038419;28;20266;-89
2022/01/13 01:41:26;;;;;;;93.13;41.43;;;-4.30;99.90;;;;;;5037534;28;20547;-89
2022/01/13 01:43:55;;;;;;;84.38;39.80;;;-4.30;99.90;;;;;;5019943;28;20186;-88
2022/01/13 01:46:21;;;;;;;90.82;41.15;;;-4.30;99.90;;;;;;5019910;28;20564;-88
2022/01/13 01:48:47;;;;;;;82.50;40.60;;;-4.30;99.90;;;;;;5038107;28;20189;-89
2022/01/13 01:51:12;;;;;;;86.53;39.50;;;-4.30;99.90;;;;;;5038886;28;20194;-88
2022/01/13 01:53:39;;;;;;;79.07;37.60;;;-4.30;99.90;;;;;;5024574;28;20679;-88
2022/01/13 01:56:05;;;;;;;82.70;37.88;;;-4.30;99.90;;;;;;5028988;28;20260;-89
2022/01/13 01:58:32;;;;;;;86.50;38.13;;;-4.30;99.90;;;;;;5031882;28;20182;-89
2022/01/13 02:00:58;;;;;;;73.57;35.92;;;-4.30;99.90;;;;;;5037233;28;20508;-87
2022/01/13 02:03:25;;;;;;;96.30;40.60;;;-4.30;99.90;;;;;;5055394;28;20182;-88
2022/01/13 02:05:50;;;;;;;82.00;40.90;;;-4.30;99.90;;;;;;5019840;28;20568;-89
2022/01/13 02:08:16;;;;;;;99.70;43.03;;;-4.30;99.90;;;;;;5036975;28;20257;-89
2022/01/13 02:10:44;;;;;;;75.53;40.57;;;-4.30;99.90;;;;;;5019285;28;20210;-88
2022/01/13 02:13:13;;;;;;;79.85;38.42;;;-4.30;99.90;;;;;;5036064;28;20175;-88
2022/01/13 02:18:14;;;;;;;84.60;40.50;;;-4.30;99.90;;;;;;5037635;28;20189;-88
2022/01/13 02:20:45;;;;;;;75.57;38.22;;;-4.30;99.90;;;;;;5019144;28;20222;-89
2022/01/13 02:23:11;;;;;;;78.65;38.42;;;-4.30;99.90;;;;;;5019350;28;20183;-89
2022/01/13 02:25:37;;;;;;;78.68;37.38;;;-4.40;99.90;;;;;;5020536;28;20244;-89
2022/01/13 02:28:02;;;;;;;78.80;38.13;;;-4.40;99.90;;;;;;5039290;28;20620;-88
2022/01/13 02:30:28;;;;;;;80.17;39.27;;;-4.40;99.90;;;;;;5019550;28;20270;-89
2022/01/13 02:32:54;;;;;;;83.53;39.47;;;-4.40;99.90;;;;;;5019110;28;20431;-88
2022/01/13 02:35:20;;;;;;;73.60;38.63;;;-4.50;99.90;;;;;;5018504;28;20198;-88
2022/01/13 02:37:45;;;;;;;80.43;38.70;;;-4.50;99.90;;;;;;5019212;28;20191;-87
2022/01/13 02:40:11;;;;;;;71.93;36.90;;;-4.50;99.90;;;;;;5018761;28;20195;-88
2022/01/13 02:42:37;;;;;;;73.18;37.78;;;-4.50;99.90;;;;;;5038074;28;20651;-88
2022/01/13 02:45:06;;;;;;;70.47;37.30;;;-4.60;99.90;;;;;;5018721;28;20673;-89
2022/01/13 02:50:08;;;;;;;81.95;40.78;;;-4.70;99.90;;;;;;5036786;28;20639;-89
2022/01/13 02:52:35;;;;;;;67.40;36.97;;;-4.70;99.90;;;;;;5035144;28;20202;-88
2022/01/13 02:55:00;;;;;;;81.30;40.20;;;-4.80;99.90;;;;;;5018830;28;20198;-88
2022/01/13 02:57:26;;;;;;;92.87;39.03;;;-4.80;99.90;;;;;;5018591;28;20189;-87
2022/01/13 02:59:52;;;;;;;80.07;39.00;;;-4.80;99.90;;;;;;5018328;28;20855;-89
2022/01/13 03:02:18;;;;;;;81.80;39.47;;;-4.80;99.90;;;;;;5036318;28;20489;-88
2022/01/13 03:04:48;;;;;;;85.43;38.17;;;-4.90;99.90;;;;;;5030619;28;20209;-88
2022/01/13 03:07:14;;;;;;;79.80;36.20;;;-4.90;99.90;;;;;;5031382;28;20468;-88
2022/01/13 03:09:41;;;;;;;73.82;38.30;;;-4.90;99.90;;;;;;5018371;28;20207;-89
2022/01/13 03:12:08;;;;;;;73.00;37.60;;;-5.00;99.90;;;;;;5018014;28;20202;-88
2022/01/13 03:14:33;;;;;;;75.78;40.22;;;-5.00;99.90;;;;;;5035461;28;20183;-88
2022/01/13 03:16:59;;;;;;;105.43;43.93;;;-5.10;99.90;;;;;;5018964;28;20183;-89
2022/01/13 03:19:25;;;;;;;114.47;52.40;;;-5.10;99.90;;;;;;5018616;28;20270;-88
2022/01/13 03:21:51;;;;;;;113.30;49.80;;;-5.20;99.90;;;;;;5018097;28;20683;-88
2022/01/13 03:24:16;;;;;;;93.60;41.30;;;-5.30;99.90;;;;;;5018296;28;20458;-88
2022/01/13 03:26:44;;;;;;;86.87;38.37;;;-5.30;99.90;;;;;;5035337;28;20276;-89
2022/01/13 03:31:35;;;;;;;83.00;39.60;;;-5.40;99.90;;;;;;5035325;28;20201;-88
2022/01/13 03:34:01;;;;;;;87.40;39.77;;;-5.40;99.90;;;;;;5017628;28;20182;-88
2022/01/13 03:36:27;;;;;;;91.27;41.10;;;-5.30;99.90;;;;;;5017927;28;20424;-89
2022/01/13 03:38:54;;;;;;;84.63;41.37;;;-5.40;99.90;;;;;;5021118;28;20770;-88
2022/01/13 03:41:21;;;;;;;96.05;40.28;;;-5.30;99.90;;;;;;5018534;28;20478;-88
2022/01/13 03:43:50;;;;;;;84.78;40.58;;;-5.30;99.90;;;;;;5017823;28;20722;-88
2022/01/13 03:46:15;;;;;;;84.05;40.20;;;-5.30;99.90;;;;;;5035256;28;20198;-88
2022/01/13 03:48:42;;;;;;;97.97;41.47;;;-5.20;99.90;;;;;;5035643;28;20181;-89
2022/01/13 03:51:08;;;;;;;91.20;41.45;;;-5.20;99.90;;;;;;5017523;28;20257;-87
2022/01/13 03:54:11;;;;;;;77.10;37.33;;;-5.20;99.90;;;;;;5018097;28;20178;-89
2022/01/13 03:57:06;;;;;;;67.00;33.08;;;-5.30;99.90;;;;;;5017671;28;20202;-88
2022/01/13 03:59:58;;;;;;;71.15;34.63;;;-5.20;99.90;;;;;;5034893;28;20655;-88
2022/01/13 04:02:24;;;;;;;87.00;38.78;;;-5.30;99.90;;;;;;5033788;28;20222;-88
2022/01/13 04:04:50;;;;;;;78.47;38.03;;;-5.30;99.90;;;;;;5035032;28;20208;-88
2022/01/13 04:07:21;;;;;;;68.15;36.45;;;-5.20;99.90;;;;;;5016768;28;20323;-88
2022/01/13 04:09:46;;;;;;;77.75;33.10;;;-5.20;99.90;;;;;;5017107;28;20213;-87
2022/01/13 04:12:14;;;;;;;65.53;33.03;;;-5.20;99.90;;;;;;5033629;28;20174;-87
2022/01/13 04:14:49;;;;;;;64.63;35.88;;;-5.10;99.90;;;;;;5024517;28;20668;-89
2022/01/13 04:17:20;;;;;;;81.45;37.92;;;-5.10;99.90;;;;;;5039318;28;20234;-88
2022/01/13 04:19:47;;;;;;;78.55;40.03;;;-5.10;99.90;;;;;;5028709;28;20198;-87
2022/01/13 04:22:15;;;;;;;80.85;38.33;;;-5.10;99.90;;;;;;5018017;28;20225;-87
2022/01/13 04:24:48;;;;;;;78.50;38.70;;;-5.10;99.90;;;;;;5034439;28;20194;-89
2022/01/13 04:27:26;;;;;;;79.47;36.28;;;-5.10;99.90;;;;;;5034610;28;20254;-87
2022/01/13 04:32:38;;;;;;;70.72;34.97;;;-5.00;99.90;;;;;;5033194;28;20197;-89
2022/01/13 04:35:05;;;;;;;70.10;34.25;;;-5.00;99.90;;;;;;5016676;28;20698;-86
2022/01/13 04:37:31;;;;;;;86.50;35.42;;;-5.00;99.90;;;;;;5033730;28;20174;-88
2022/01/13 04:39:57;;;;;;;64.57;35.10;;;-5.00;99.90;;;;;;5016789;28;20672;-88
2022/01/13 04:42:23;;;;;;;63.70;30.20;;;-5.00;99.90;;;;;;5016601;28;20264;-88
2022/01/13 04:44:48;;;;;;;80.57;31.75;;;-5.00;99.90;;;;;;5016590;28;20328;-87
2022/01/13 04:47:14;;;;;;;58.60;30.87;;;-5.00;99.90;;;;;;5017082;28;20170;-88
2022/01/13 04:49:40;;;;;;;69.87;34.10;;;-5.00;99.90;;;;;;5016779;28;20210;-87
2022/01/13 04:52:06;;;;;;;72.55;33.40;;;-5.00;99.90;;;;;;5033183;28;20209;-87
2022/01/13 04:54:31;;;;;;;66.77;34.60;;;-5.00;99.90;;;;;;5016573;28;20178;-88
2022/01/13 04:57:14;;;;;;;87.03;38.97;;;-5.00;99.90;;;;;;5016435;28;20190;-87
2022/01/13 04:59:41;;;;;;;91.68;39.30;;;-5.00;99.90;;;;;;5016475;28;20271;-89
2022/01/13 05:02:06;;;;;;;84.13;39.60;;;-5.00;99.90;;;;;;5016566;28;20309;-87
2022/01/13 05:04:32;;;;;;;80.23;38.90;;;-5.00;99.90;;;;;;5016362;28;20270;-88
2022/01/13 05:06:58;;;;;;;85.20;45.63;;;-4.90;99.90;;;;;;5033645;28;20234;-87
2022/01/13 05:09:23;;;;;;;134.57;63.00;;;-4.90;99.90;;;;;;5015605;28;20232;-86
2022/01/13 05:11:49;;;;;;;110.97;49.47;;;-4.90;99.90;;;;;;5016264;28;20190;-87
2022/01/13 05:14:15;;;;;;;99.37;48.50;;;-4.90;99.90;;;;;;5016851;28;20228;-86
2022/01/13 05:19:32;;;;;;;169.43;64.45;;;-4.90;99.90;;;;;;5038571;28;20547;-88
2022/01/13 05:24:27;;;;;;;113.33;49.13;;;-5.00;99.90;;;;;;5034165;28;20262;-88
2022/01/13 05:26:56;;;;;;;110.60;47.42;;;-5.00;99.90;;;;;;4996911;28;20644;-87
2022/01/13 05:29:21;;;;;;;98.32;47.35;;;-5.10;99.90;;;;;;4997550;28;20188;-86
2022/01/13 05:31:49;;;;;;;120.80;52.53;;;-5.10;99.90;;;;;;5026237;28;20197;-87
2022/01/13 05:34:16;;;;;;;120.18;49.92;;;-5.20;99.90;;;;;;5013390;28;20182;-88
2022/01/13 05:36:42;;;;;;;122.50;46.75;;;-5.40;99.90;;;;;;5013926;28;20205;-86
2022/01/13 05:39:08;;;;;;;79.53;33.00;;;-5.40;99.90;;;;;;5012115;28;20183;-87
2022/01/13 05:41:34;;;;;;;58.30;27.97;;;-5.50;99.90;;;;;;5012315;28;20229;-87
2022/01/13 05:44:00;;;;;;;61.20;28.77;;;-5.50;99.90;;;;;;5021388;28;20432;-89
2022/01/13 05:46:25;;;;;;;710.90;235.25;;;-5.40;99.90;;;;;;5006443;28;20428;-87
2022/01/13 05:48:54;;;;;;;1180.80;427.63;;;-5.40;99.90;;;;;;5009204;28;20663;-88
2022/01/13 05:51:20;;;;;;;632.45;294.23;;;-5.30;99.90;;;;;;5016284;28;20440;-87
2022/01/13 05:53:46;;;;;;;263.42;120.15;;;-5.20;99.90;;;;;;4998107;28;20184;-89
2022/01/13 05:56:13;;;;;;;138.95;58.05;;;-5.20;99.90;;;;;;4997758;28;20695;-87
2022/01/13 05:58:38;;;;;;;84.35;40.63;;;-5.10;99.90;;;;;;4999690;28;20613;-88
2022/01/13 06:01:04;;;;;;;74.10;38.90;;;-5.20;99.90;;;;;;5013402;28;20305;-88
2022/01/13 06:03:30;;;;;;;85.10;39.30;;;-5.10;99.90;;;;;;5012322;28;20795;-87
2022/01/13 06:05:56;;;;;;;79.18;37.50;;;-5.10;99.90;;;;;;5036520;28;20432;-89
2022/01/13 06:08:22;;;;;;;89.57;35.20;;;-5.10;99.90;;;;;;5031841;28;20281;-88
2022/01/13 06:10:48;;;;;;;76.50;32.57;;;-5.10;99.90;;;;;;5043028;28;20201;-88
2022/01/13 06:13:14;;;;;;;87.67;37.43;;;-5.10;99.90;;;;;;5017296;28;20520;-88
2022/01/13 06:15:40;;;;;;;81.40;38.90;;;-5.10;99.90;;;;;;5018728;28;20455;-86
2022/01/13 06:18:11;;;;;;;74.33;40.40;;;-5.10;99.90;;;;;;5035357;28;20446;-87
2022/01/13 06:20:39;;;;;;;81.25;42.33;;;-5.20;99.90;;;;;;5018979;28;20495;-88
2022/01/13 06:23:05;;;;;;;91.60;46.45;;;-5.30;99.90;;;;;;5018328;28;20290;-88
2022/01/13 06:25:31;;;;;;;100.97;50.17;;;-5.40;99.90;;;;;;5017158;28;20206;-88
2022/01/13 06:27:57;;;;;;;87.63;47.55;;;-5.40;99.90;;;;;;5034452;28;20167;-89
2022/01/13 06:30:23;;;;;;;83.93;44.55;;;-5.40;99.90;;;;;;5016160;28;20252;-88
2022/01/13 06:32:49;;;;;;;85.87;41.77;;;-5.40;99.90;;;;;;5013377;28;20185;-88
2022/01/13 06:35:15;;;;;;;79.60;41.60;;;-5.40;99.90;;;;;;5033500;28;20195;-87
2022/01/13 06:37:41;;;;;;;80.28;42.58;;;-5.30;99.90;;;;;;5011303;28;20531;-86
2022/01/13 06:40:09;;;;;;;88.15;42.65;;;-5.30;99.90;;;;;;5022388;28;20297;-87
2022/01/13 06:42:35;;;;;;;103.13;44.45;;;-5.30;99.90;;;;;;5014253;28;20297;-87
2022/01/13 06:45:01;;;;;;;94.50;45.25;;;-5.30;99.90;;;;;;5007638;28;20207;-88
2022/01/13 06:47:27;;;;;;;91.55;43.50;;;-5.30;99.90;;;;;;5018237;28;20178;-87
2022/01/13 06:49:53;;;;;;;96.22;46.00;;;-5.30;99.90;;;;;;5033416;28;20225;-88
2022/01/13 06:52:18;;;;;;;90.63;44.73;;;-5.40;99.90;;;;;;5018774;28;20264;-87
2022/01/13 06:54:44;;;;;;;79.77;42.60;;;-5.30;99.90;;;;;;5043147;28;20264;-86
2022/01/13 06:57:18;;;;;;;87.95;41.60;;;-5.40;99.90;;;;;;5020510;28;20614;-86
2022/01/13 06:59:46;;;;;;;78.25;41.13;;;-5.30;99.90;;;;;;5017752;28;20207;-86
2022/01/13 07:02:13;;;;;;;85.90;41.03;;;-5.30;99.90;;;;;;5026717;28;20220;-89
2022/01/13 07:04:38;;;;;;;85.72;39.65;;;-5.30;99.90;;;;;;5016585;28;20211;-89
2022/01/13 07:07:04;;;;;;;76.37;41.40;;;-5.30;99.90;;;;;;5020222;28;20222;-86
2022/01/13 07:09:30;;;;;;;84.23;42.93;;;-5.30;99.90;;;;;;5014346;28;20654;-89
2022/01/13 07:11:55;;;;;;;89.20;44.17;;;-5.30;99.90;;;;;;5025913;28;20420;-87
2022/01/13 07:14:21;;;;;;;125.07;68.70;;;-5.30;99.90;;;;;;5034927;28;20594;-87
2022/01/13 07:16:47;;;;;;;99.90;46.07;;;-5.30;99.90;;;;;;5013460;28;20416;-88
2022/01/13 07:19:15;;;;;;;90.83;45.13;;;-5.30;99.90;;;;;;5002199;28;20310;-88
2022/01/13 07:21:42;;;;;;;101.00;47.92;;;-5.20;99.90;;;;;;4996556;28;20238;-88
2022/01/13 07:24:08;;;;;;;132.90;64.13;;;-5.10;99.90;;;;;;5013697;28;20186;-88
2022/01/13 07:26:34;;;;;;;119.67;61.90;;;-5.10;99.90;;;;;;5014159;28;20213;-89
2022/01/13 07:29:00;;;;;;;94.10;47.30;;;-5.00;99.90;;;;;;4997015;28;20489;-87
2022/01/13 07:31:28;;;;;;;97.85;46.47;;;-4.90;99.90;;;;;;5001507;28;20455;-87
2022/01/13 07:33:54;;;;;;;83.03;41.35;;;-4.80;99.90;;;;;;4993591;28;20336;-88
2022/01/13 07:36:20;;;;;;;92.10;44.80;;;-4.70;99.90;;;;;;5000766;28;20210;-88
2022/01/13 07:38:46;;;;;;;73.77;38.30;;;-4.70;99.90;;;;;;4995687;28;21811;-89
2022/01/13 07:41:11;;;;;;;87.93;42.50;;;-4.50;99.90;;;;;;5003399;28;21074;-89
2022/01/13 07:43:41;;;;;;;80.43;40.40;;;-4.40;99.90;;;;;;5020424;28;20428;-89
2022/01/13 07:46:06;;;;;;;82.68;39.53;;;-4.10;99.90;;;;;;5001276;28;20235;-90
2022/01/13 07:48:32;;;;;;;81.47;39.93;;;-3.80;99.90;;;;;;5007818;28;20289;-91
2022/01/13 07:50:58;;;;;;;82.30;39.67;;;-3.50;99.90;;;;;;5002322;28;20509;-90
2022/01/13 07:53:24;;;;;;;68.68;40.58;;;-3.20;99.90;;;;;;5002518;28;20992;-91
2022/01/13 07:55:50;;;;;;;79.80;37.05;;;-2.90;99.90;;;;;;5018043;28;20218;-89
2022/01/13 07:58:16;;;;;;;69.60;37.00;;;-2.40;99.90;;;;;;5001741;28;20200;-89
2022/01/13 08:00:42;;;;;;;70.30;36.10;;;-2.00;99.90;;;;;;4998119;28;20214;-90
2022/01/13 08:03:08;;;;;;;65.97;37.63;;;-1.60;99.90;;;;;;5014415;28;20209;-89
2022/01/13 08:05:34;;;;;;;64.72;37.35;;;-1.20;99.90;;;;;;4996556;28;20455;-92
2022/01/13 08:08:00;;;;;;;69.43;36.70;;;-0.70;99.90;;;;;;5001693;28;20234;-90
2022/01/13 08:10:26;;;;;;;70.13;38.20;;;-0.30;99.90;;;;;;5000129;28;20213;-90
2022/01/13 08:12:52;;;;;;;73.43;37.05;;;0.10;99.90;;;;;;4999187;28;20449;-90
2022/01/13 08:15:18;;;;;;;73.65;44.40;;;0.60;99.90;;;;;;5004404;28;20640;-90
2022/01/13 08:20:32;;;;;;;76.20;42.00;;;1.60;99.90;;;;;;5039346;28;20217;-89
2022/01/13 08:22:57;;;;;;;82.80;43.35;;;2.00;99.90;;;;;;5020872;28;20179;-89
2022/01/13 08:25:24;;;;;;;77.77;41.10;;;2.30;99.90;;;;;;5015885;28;20277;-90
2022/01/13 08:27:50;;;;;;;71.93;39.85;;;2.70;99.90;;;;;;5015251;28;20452;-89
2022/01/13 08:30:16;;;;;;;62.30;37.70;;;3.20;99.90;;;;;;5033575;28;20285;-87
2022/01/13 08:32:42;;;;;;;59.73;33.03;;;3.50;99.90;;;;;;5031059;28;20494;-87
2022/01/13 08:35:09;;;;;;;56.65;30.73;;;4.00;99.90;;;;;;5016028;28;20464;-87
2022/01/13 08:37:35;;;;;;;60.08;33.70;;;4.30;99.90;;;;;;5015937;28;20189;-89
2022/01/13 08:40:06;;;;;;;63.97;31.60;;;4.40;99.90;;;;;;5020854;28;20230;-88
2022/01/13 08:42:33;;;;;;;61.83;34.33;;;4.70;99.90;;;;;;5017208;28;20214;-88
2022/01/13 08:44:59;;;;;;;55.00;34.58;;;5.00;99.90;;;;;;5018849;28;20202;-89
2022/01/13 08:47:24;;;;;;;60.42;34.30;;;5.30;99.90;;;;;;5012525;28;20189;-88
2022/01/13 08:49:50;;;;;;;69.23;36.07;;;5.30;99.90;;;;;;5008344;28;20207;-88
2022/01/13 08:52:16;;;;;;;59.00;33.93;;;5.30;99.90;;;;;;5011388;28;20189;-88
2022/01/13 08:54:45;;;;;;;54.93;33.33;;;5.30;99.90;;;;;;5012714;28;20443;-87
2022/01/13 08:57:11;;;;;;;55.40;33.80;;;5.40;99.90;;;;;;5016818;28;20190;-88
2022/01/13 08:59:37;;;;;;;57.05;31.92;;;5.50;99.90;;;;;;5027561;28;20525;-87
2022/01/13 09:02:03;;;;;;;61.97;35.05;;;5.60;99.90;;;;;;5002761;28;20221;-88
2022/01/13 09:04:29;;;;;;;57.67;35.70;;;5.50;99.90;;;;;;5009108;28;20183;-88
2022/01/13 09:06:58;;;;;;;59.87;33.80;;;5.40;99.90;;;;;;5030070;28;20237;-88
2022/01/13 09:09:24;;;;;;;63.17;36.83;;;5.30;99.90;;;;;;5032978;28;20394;-87
2022/01/13 09:11:50;;;;;;;53.10;30.87;;;5.20;99.90;;;;;;5019676;28;20183;-87
2022/01/13 09:14:17;;;;;;;80.55;42.95;;;5.10;99.90;;;;;;5024512;28;20234;-87
2022/01/13 09:16:46;;;;;;;71.50;39.03;;;5.30;99.90;;;;;;5005938;28;20635;-88
2022/01/13 09:19:14;;;;;;;62.05;36.45;;;5.40;99.90;;;;;;5019111;28;20193;-88
2022/01/13 09:21:42;;;;;;;78.03;42.80;;;5.50;99.90;;;;;;5015103;28;20599;-87
2022/01/13 09:24:11;;;;;;;71.75;42.50;;;5.80;99.90;;;;;;5017874;28;20635;-87
2022/01/13 09:26:37;;;;;;;66.82;35.65;;;6.10;99.90;;;;;;5018306;28;20723;-87
2022/01/13 09:29:06;;;;;;;59.03;34.40;;;6.40;99.90;;;;;;5043047;28;20323;-87
2022/01/13 09:31:33;;;;;;;62.75;36.08;;;6.60;99.90;;;;;;5027900;28;20751;-88
2022/01/13 09:34:01;;;;;;;64.05;35.72;;;6.80;99.90;;;;;;5017186;28;20547;-88
2022/01/13 09:36:29;;;;;;;71.80;40.60;;;6.90;99.90;;;;;;5019621;28;20187;-89
2022/01/13 09:38:55;;;;;;;54.83;33.83;;;7.00;99.90;;;;;;5021907;28;20178;-89
2022/01/13 09:41:23;;;;;;;65.18;38.45;;;7.10;99.90;;;;;;5029917;28;20207;-89
2022/01/13 09:43:49;;;;;;;59.15;37.55;;;7.20;99.90;;;;;;5029244;28;20179;-88
2022/01/13 09:46:16;;;;;;;56.38;35.33;;;7.50;99.40;;;;;;5023991;28;20203;-89
2022/01/13 09:48:44;;;;;;;58.10;35.20;;;7.80;99.90;;;;;;5023175;28;20182;-88
2022/01/13 09:51:10;;;;;;;52.70;33.00;;;8.20;98.90;;;;;;5029812;28;20210;-87
2022/01/13 09:53:36;;;;;;;52.67;32.47;;;8.50;98.20;;;;;;5035225;28;20193;-87
2022/01/13 09:56:03;;;;;;;55.05;33.80;;;8.60;98.00;;;;;;5017875;28;20418;-88
2022/01/13 09:58:28;;;;;;;57.42;32.25;;;8.70;96.80;;;;;;5034792;28;20237;-89
2022/01/13 10:00:54;;;;;;;64.00;35.17;;;8.70;96.30;;;;;;5031540;28;20609;-87
2022/01/13 10:03:26;;;;;;;52.63;33.20;;;8.50;96.00;;;;;;5029215;28;20175;-88
2022/01/13 10:05:53;;;;;;;66.93;40.10;;;8.10;97.20;;;;;;5015472;28;20229;-88
2022/01/13 10:08:44;;;;;;;62.95;34.90;;;7.80;97.60;;;;;;5026371;28;20190;-88
2022/01/13 10:11:29;;;;;;;48.40;29.70;;;7.60;97.80;;;;;;5000840;28;20226;-88
2022/01/13 10:14:05;;;;;;;59.00;32.92;;;7.30;97.40;;;;;;5019227;28;21186;-88
2022/01/13 10:16:31;;;;;;;48.08;26.65;;;7.00;97.40;;;;;;5030492;28;20561;-88
2022/01/13 10:18:58;;;;;;;55.63;30.83;;;6.70;97.50;;;;;;5024502;28;20183;-88
2022/01/13 10:21:24;;;;;;;51.75;31.00;;;6.50;98.30;;;;;;5047442;28;20222;-87
2022/01/13 10:24:23;;;;;;;59.97;32.60;;;6.40;98.80;;;;;;5014940;28;20190;-89
2022/01/13 10:27:03;;;;;;;55.40;32.88;;;6.10;99.30;;;;;;5016146;28;20529;-87
2022/01/13 10:29:44;;;;;;;47.22;28.00;;;6.00;99.80;;;;;;5014664;28;20210;-88
2022/01/13 10:32:13;;;;;;;58.72;32.90;;;5.90;99.20;;;;;;5031455;28;20639;-88
2022/01/13 10:34:41;;;;;;;60.55;36.67;;;5.70;99.90;;;;;;5026027;28;20274;-87
2022/01/13 10:37:11;;;;;;;63.67;31.95;;;5.60;99.90;;;;;;5009885;28;20217;-88
2022/01/13 10:39:57;;;;;;;55.88;31.55;;;5.50;99.90;;;;;;5011147;28;20206;-87
2022/01/13 10:45:14;;;;;;;63.03;35.97;;;5.30;99.90;;;;;;5024018;28;20700;-87
2022/01/13 10:47:41;;;;;;;83.82;52.25;;;5.20;99.90;;;;;;5015172;28;20228;-88
2022/01/13 10:50:12;;;;;;;53.30;32.88;;;5.00;99.90;;;;;;5023048;28;20961;-87
2022/01/13 10:52:39;;;;;;;59.65;31.67;;;4.80;99.90;;;;;;5016362;28;20209;-89
2022/01/13 10:55:14;;;;;;;56.88;31.23;;;4.70;99.90;;;;;;5039980;28;20207;-88
2022/01/13 10:57:42;;;;;;;55.60;29.80;;;4.60;99.90;;;;;;5029962;28;20207;-88
2022/01/13 11:00:33;;;;;;;58.13;31.75;;;4.60;99.90;;;;;;5018927;28;20213;-86
2022/01/13 11:02:58;;;;;;;55.33;30.75;;;4.50;99.90;;;;;;5012312;28;20253;-88
2022/01/13 11:05:25;;;;;;;57.77;31.20;;;4.40;99.90;;;;;;5005978;28;20203;-87
2022/01/13 11:07:51;;;;;;;53.75;31.63;;;4.30;99.90;;;;;;5008792;28;20292;-87
2022/01/13 11:10:17;;;;;;;55.88;32.70;;;4.20;99.90;;;;;;5020094;28;20195;-88
2022/01/13 11:12:44;;;;;;;56.33;32.87;;;4.10;99.90;;;;;;5035119;28;20225;-88
2022/01/13 11:15:17;;;;;;;61.92;32.25;;;4.00;99.90;;;;;;5006291;28;20787;-87
2022/01/13 11:17:45;;;;;;;64.55;35.20;;;3.80;99.90;;;;;;5030096;28;20190;-88
2022/01/13 11:20:15;;;;;;;65.13;35.20;;;3.60;99.90;;;;;;5029801;28;20672;-87
2022/01/13 11:22:44;;;;;;;65.60;33.55;;;3.60;99.90;;;;;;5009360;28;20242;-87
2022/01/13 11:25:13;;;;;;;60.53;32.80;;;3.50;99.90;;;;;;5011439;28;20218;-87
2022/01/13 11:27:39;;;;;;;61.03;32.33;;;3.50;99.90;;;;;;5016245;28;20179;-88
2022/01/13 11:30:08;;;;;;;59.60;31.07;;;3.40;99.90;;;;;;5034759;28;20583;-87
2022/01/13 11:32:35;;;;;;;59.50;34.83;;;3.50;99.90;;;;;;5034783;28;20411;-87
2022/01/13 11:35:01;;;;;;;57.45;32.63;;;3.50;99.90;;;;;;5013119;28;20217;-86
2022/01/13 11:37:30;;;;;;;48.05;29.00;;;3.50;99.90;;;;;;5035403;28;20205;-87
2022/01/13 11:39:57;;;;;;;62.45;32.38;;;3.60;99.90;;;;;;5024914;28;20209;-87
2022/01/13 11:42:24;;;;;;;60.30;32.65;;;3.60;99.90;;;;;;5029422;28;20215;-87
2022/01/13 11:45:23;;;;;;;63.17;30.95;;;3.70;99.90;;;;;;5012699;28;20202;-87
2022/01/13 11:48:13;;;;;;;59.45;29.92;;;3.70;99.90;;;;;;4976822;28;20560;-87
2022/01/13 11:50:45;;;;;;;50.95;28.25;;;3.80;99.90;;;;;;5030972;28;20221;-88
2022/01/13 11:53:23;;;;;;;53.88;30.02;;;3.90;99.90;;;;;;5028207;28;20189;-88
2022/01/13 11:56:04;;;;;;;56.72;29.23;;;3.90;99.90;;;;;;5016182;28;20711;-87
2022/01/13 11:58:42;;;;;;;56.25;30.55;;;4.00;99.90;;;;;;5025893;28;20934;-87
2022/01/13 12:01:31;;;;;;;51.72;29.33;;;4.10;99.90;;;;;;5021364;28;20730;-88
2022/01/13 12:03:59;;;;;;;53.47;29.48;;;4.20;99.90;;;;;;5016798;28;20187;-87
2022/01/13 12:06:33;;;;;;;61.40;31.58;;;4.20;99.90;;;;;;5019740;28;20233;-87
2022/01/13 12:08:59;;;;;;;53.05;30.92;;;4.20;99.90;;;;;;5012022;28;20261;-86
2022/01/13 12:11:50;;;;;;;49.42;28.40;;;4.30;99.90;;;;;;5011478;28;20559;-86
2022/01/13 12:14:34;;;;;;;54.38;30.25;;;4.30;99.90;;;;;;5013941;28;20210;-86
2022/01/13 12:17:12;;;;;;;51.55;28.58;;;4.40;99.90;;;;;;5040063;28;20201;-87
2022/01/13 12:19:45;;;;;;;45.03;29.83;;;4.50;99.90;;;;;;5022933;28;20281;-86
2022/01/13 12:22:45;;;;;;;53.33;30.67;;;4.50;99.90;;;;;;5012209;28;20219;-86
2022/01/13 12:25:13;;;;;;;52.35;27.77;;;4.50;99.90;;;;;;4991728;28;20207;-87
2022/01/13 12:27:38;;;;;;;48.53;28.08;;;4.50;99.90;;;;;;5023821;28;20183;-87
2022/01/13 12:30:18;;;;;;;52.03;29.57;;;4.50;99.90;;;;;;5015262;28;20203;-87
2022/01/13 12:32:47;;;;;;;51.35;28.88;;;4.60;99.90;;;;;;5011612;28;20190;-87
2022/01/13 12:35:22;;;;;;;48.30;29.02;;;4.60;99.90;;;;;;5015977;28;20205;-86
2022/01/13 12:38:20;;;;;;;53.72;31.20;;;4.60;99.90;;;;;;5020450;28;20201;-86
2022/01/13 12:41:02;;;;;;;49.50;30.45;;;4.60;99.90;;;;;;5017737;28;20299;-86
2022/01/13 12:46:08;;;;;;;55.63;32.17;;;4.60;99.90;;;;;;5024233;28;20210;-87
2022/01/13 12:48:34;;;;;;;377.90;156.10;;;4.60;99.90;;;;;;5024889;28;20179;-86
2022/01/13 12:51:01;;;;;;;53.63;32.25;;;4.50;99.90;;;;;;5007886;28;20206;-85
2022/01/13 12:53:30;;;;;;;59.30;31.98;;;4.40;99.90;;;;;;5011484;28;20186;-87
2022/01/13 12:55:58;;;;;;;56.60;33.88;;;4.40;99.90;;;;;;4998849;28;20201;-86
2022/01/13 12:58:30;;;;;;;60.35;32.20;;;4.40;99.90;;;;;;5014964;28;20190;-86
2022/01/13 13:01:02;;;;;;;54.85;30.50;;;4.30;99.90;;;;;;5020518;28;20214;-87
2022/01/13 13:03:27;;;;;;;59.88;33.17;;;4.30;99.90;;;;;;5061350;28;20181;-87
2022/01/13 13:05:55;;;;;;;56.23;30.93;;;4.30;99.90;;;;;;5004322;28;20202;-87
2022/01/13 13:08:23;;;;;;;67.95;34.78;;;4.30;99.90;;;;;;5008695;28;20611;-86
2022/01/13 13:10:57;;;;;;;64.32;34.90;;;4.20;99.90;;;;;;5022528;28;20202;-87
2022/01/13 13:13:23;;;;;;;57.83;32.63;;;4.20;99.90;;;;;;5013389;28;20195;-87
2022/01/13 13:15:57;;;;;;;63.47;35.60;;;4.20;99.90;;;;;;5039940;28;20210;-87
2022/01/13 13:18:25;;;;;;;69.25;45.30;;;4.20;99.90;;;;;;5033199;28;20202;-86
2022/01/13 13:20:51;;;;;;;55.90;31.65;;;4.20;99.90;;;;;;5022368;28;20245;-87